Time;durP1;ratioP1;P1;durP2;ratioP2;P2;SDS_P1;SDS_P2;PMS_P1;PMS_P2;Temp;Humidity;BMP_temperature;BMP_pressure;BME280_temperature;BME280_humidity;BME280_pressure;Samples;Min_cycle;Max_cycle;Signal;HPM_P1;HPM_P2
2022/01/12 00:01:14;;;;;;;5.75;4.05;;;6.10;78.50;;;;;;5046647;28;20048;-88
2022/01/12 00:03:42;;;;;;;6.28;4.22;;;6.00;78.50;;;;;;5032694;28;20039;-88
2022/01/12 00:06:08;;;;;;;6.07;4.10;;;6.10;78.50;;;;;;5073632;28;20445;-88
2022/01/12 00:08:34;;;;;;;5.95;4.30;;;6.10;79.20;;;;;;5039239;28;20091;-87
2022/01/12 00:11:02;;;;;;;6.30;4.72;;;6.10;78.50;;;;;;5070676;28;20028;-89
2022/01/12 00:13:28;;;;;;;7.07;4.53;;;6.10;78.50;;;;;;5047112;28;20031;-88
2022/01/12 00:15:55;;;;;;;6.85;4.60;;;6.10;78.50;;;;;;5044644;28;20035;-87
2022/01/12 00:18:21;;;;;;;6.15;4.40;;;6.10;78.50;;;;;;5039847;28;20033;-88
2022/01/12 00:20:49;;;;;;;6.20;3.97;;;6.10;78.50;;;;;;5024180;28;20041;-87
2022/01/12 00:23:16;;;;;;;6.20;4.18;;;6.20;78.60;;;;;;5030897;28;20052;-87
2022/01/12 00:26:02;;;;;;;6.60;4.63;;;6.20;78.50;;;;;;5044449;28;20025;-87
2022/01/12 00:34:08;;;;;;;7.18;4.45;;;6.20;78.50;;;;;;5041111;28;20484;-87
2022/01/12 00:36:34;;;;;;;6.90;4.88;;;6.10;78.40;;;;;;5045847;28;20108;-88
2022/01/12 00:39:10;;;;;;;7.15;5.00;;;6.20;78.50;;;;;;5052773;28;20079;-89
2022/01/12 00:41:41;;;;;;;5.80;4.28;;;6.20;78.50;;;;;;5044744;28;20090;-86
2022/01/12 00:44:22;;;;;;;6.75;4.43;;;6.20;78.50;;;;;;5042390;28;20041;-87
2022/01/12 00:46:52;;;;;;;7.05;4.38;;;6.20;78.60;;;;;;5035482;28;20043;-87
2022/01/12 00:49:20;;;;;;;7.10;4.45;;;6.20;78.50;;;;;;5020071;28;20063;-86
2022/01/12 00:51:54;;;;;;;6.28;4.40;;;6.20;78.50;;;;;;5030845;28;20018;-87
2022/01/12 00:54:22;;;;;;;7.40;4.82;;;6.20;78.50;;;;;;5031172;28;20021;-86
2022/01/12 00:56:51;;;;;;;5.68;4.25;;;6.20;78.50;;;;;;5048335;28;20021;-88
2022/01/12 00:59:17;;;;;;;5.82;4.13;;;6.20;78.50;;;;;;5025991;28;20067;-86
2022/01/12 01:01:47;;;;;;;6.72;4.97;;;6.20;78.50;;;;;;5053156;28;20013;-87
2022/01/12 01:04:13;;;;;;;6.00;4.28;;;6.30;78.50;;;;;;5053736;28;20025;-87
2022/01/12 01:06:39;;;;;;;7.57;4.68;;;6.30;78.50;;;;;;5064249;28;20017;-86
2022/01/12 01:09:06;;;;;;;7.10;5.18;;;6.30;78.50;;;;;;5050238;28;20035;-88
2022/01/12 01:11:33;;;;;;;8.27;4.75;;;6.30;78.50;;;;;;5047737;28;20055;-86
2022/01/12 01:14:11;;;;;;;6.47;4.88;;;6.30;78.50;;;;;;5026806;28;20373;-86
2022/01/12 01:27:27;;;;;;;7.30;4.85;;;6.30;78.50;;;;;;5044529;28;20478;-87
2022/01/12 01:29:56;;;;;;;6.43;4.97;;;6.30;78.50;;;;;;5036678;28;20120;-87
2022/01/12 01:32:23;;;;;;;6.95;4.90;;;6.30;78.60;;;;;;5051908;28;20029;-88
2022/01/12 01:34:52;;;;;;;6.57;4.90;;;6.30;78.60;;;;;;5033193;28;20025;-87
2022/01/12 01:37:20;;;;;;;6.90;5.07;;;6.30;78.50;;;;;;5017858;28;20052;-87
2022/01/12 01:39:48;;;;;;;6.32;4.60;;;6.30;78.60;;;;;;5043988;28;20033;-87
2022/01/12 01:42:39;;;;;;;6.93;5.10;;;6.30;78.60;;;;;;5027876;28;20021;-87
2022/01/12 01:53:27;;;;;;;6.43;4.72;;;6.30;78.50;;;;;;5047463;28;20052;-87
2022/01/12 01:55:55;;;;;;;5.88;4.35;;;6.30;78.60;;;;;;5052068;28;20025;-88
2022/01/12 01:58:24;;;;;;;6.88;4.68;;;6.30;78.70;;;;;;5005437;28;20254;-87
2022/01/12 02:00:55;;;;;;;7.25;4.75;;;6.30;78.70;;;;;;5029826;28;20056;-87
2022/01/12 02:03:27;;;;;;;6.72;5.10;;;6.30;78.70;;;;;;5056142;28;20058;-86
2022/01/12 02:05:59;;;;;;;7.22;5.00;;;6.30;78.70;;;;;;5028461;28;20056;-87
2022/01/12 02:08:25;;;;;;;7.45;5.05;;;6.30;78.70;;;;;;5051623;28;20037;-86
2022/01/12 02:10:59;;;;;;;7.78;5.05;;;6.30;78.60;;;;;;5051340;28;20021;-88
2022/01/12 02:13:28;;;;;;;6.72;4.90;;;6.30;78.60;;;;;;5035883;28;20029;-86
2022/01/12 02:15:55;;;;;;;6.72;4.82;;;6.30;78.60;;;;;;5031280;28;20012;-87
2022/01/12 02:35:35;;;;;;;7.10;5.32;;;6.30;78.70;;;;;;5037920;28;20097;-87
2022/01/12 02:40:33;;;;;;;7.38;4.97;;;6.30;78.70;;;;;;5025707;28;20446;-87
2022/01/12 02:43:12;;;;;;;7.35;5.00;;;6.30;78.80;;;;;;5057471;28;20480;-87
2022/01/12 02:51:28;;;;;;;7.55;5.35;;;6.30;78.70;;;;;;5046250;28;20098;-87
2022/01/12 02:53:55;;;;;;;7.78;5.47;;;6.40;78.70;;;;;;5033449;28;20028;-87
2022/01/12 02:56:33;;;;;;;7.47;5.30;;;6.40;78.70;;;;;;5028493;28;20025;-88
2022/01/12 02:59:02;;;;;;;7.45;5.07;;;6.40;79.10;;;;;;5017939;28;20033;-87
2022/01/12 03:04:03;;;;;;;8.23;5.22;;;6.40;78.70;;;;;;5064314;28;20017;-87
2022/01/12 03:06:34;;;;;;;8.65;5.75;;;6.40;78.80;;;;;;5053058;28;20029;-88
2022/01/12 03:09:10;;;;;;;7.85;5.70;;;6.40;78.70;;;;;;5044899;28;20543;-87
2022/01/12 03:11:37;;;;;;;6.93;5.25;;;6.40;78.80;;;;;;5024167;28;20029;-87
2022/01/12 03:14:14;;;;;;;8.70;6.05;;;6.40;78.70;;;;;;5040221;28;20104;-87
2022/01/12 03:16:42;;;;;;;8.15;5.75;;;6.40;78.70;;;;;;5021993;28;20087;-89
2022/01/12 03:19:15;;;;;;;8.65;5.70;;;6.40;78.70;;;;;;5061147;28;20032;-87
2022/01/12 03:21:41;;;;;;;8.48;6.10;;;6.40;78.70;;;;;;5031057;28;20036;-89
2022/01/12 03:24:10;;;;;;;8.45;5.72;;;6.40;78.70;;;;;;5050553;28;20466;-87
2022/01/12 03:26:37;;;;;;;8.43;6.32;;;6.40;78.70;;;;;;5058222;28;20439;-87
2022/01/12 03:29:04;;;;;;;9.10;6.30;;;6.40;78.70;;;;;;5054085;28;20026;-87
2022/01/12 03:31:33;;;;;;;8.10;5.95;;;6.40;78.70;;;;;;5025754;28;20359;-88
2022/01/12 03:34:07;;;;;;;9.70;6.22;;;6.40;78.70;;;;;;5047260;28;20439;-88
2022/01/12 03:39:13;;;;;;;8.63;6.30;;;6.40;78.70;;;;;;5062343;28;20060;-86
2022/01/12 03:41:43;;;;;;;9.63;6.88;;;6.40;78.70;;;;;;5026613;28;20097;-88
2022/01/12 03:44:13;;;;;;;9.00;6.63;;;6.50;78.70;;;;;;5037871;28;20110;-87
2022/01/12 03:46:45;;;;;;;9.05;6.05;;;6.40;78.70;;;;;;5026532;28;20040;-87
2022/01/12 03:49:13;;;;;;;9.05;6.53;;;6.50;78.70;;;;;;5050531;28;20110;-87
2022/01/12 03:51:39;;;;;;;8.88;6.15;;;6.40;78.70;;;;;;5051317;28;20025;-87
2022/01/12 03:54:09;;;;;;;8.25;6.43;;;6.40;78.70;;;;;;5061953;28;20029;-86
2022/01/12 03:56:35;;;;;;;10.50;7.03;;;6.50;78.70;;;;;;5058968;28;20031;-87
2022/01/12 03:59:02;;;;;;;9.77;6.88;;;6.50;78.80;;;;;;5036192;28;20039;-87
2022/01/12 04:01:29;;;;;;;9.27;6.55;;;6.50;78.70;;;;;;5050077;28;20028;-86
2022/01/12 04:04:03;;;;;;;9.45;6.65;;;6.50;78.70;;;;;;5060472;28;20021;-87
2022/01/12 04:09:17;;;;;;;;;;;6.50;78.70;;;;;;5062828;28;20056;-86
2022/01/12 04:11:43;;;;;;;8.90;5.95;;;6.50;78.70;;;;;;5043545;28;19915;-87
2022/01/12 04:14:10;;;;;;;8.57;6.55;;;6.40;78.60;;;;;;5065015;28;20025;-89
2022/01/12 04:16:37;;;;;;;9.75;7.30;;;6.40;78.70;;;;;;5039239;28;20033;-86
2022/01/12 04:19:04;;;;;;;9.20;6.78;;;6.40;79.40;;;;;;5042287;28;20124;-86
2022/01/12 04:21:31;;;;;;;10.38;6.90;;;6.40;78.80;;;;;;5046002;28;20017;-87
2022/01/12 04:23:58;;;;;;;10.15;6.85;;;6.50;78.80;;;;;;5045146;28;20025;-88
2022/01/12 04:26:26;;;;;;;9.32;6.25;;;6.40;78.80;;;;;;5031475;28;20021;-87
2022/01/12 04:28:55;;;;;;;8.95;7.28;;;6.50;78.90;;;;;;5047939;28;20895;-88
2022/01/12 04:31:21;;;;;;;9.65;6.72;;;6.50;78.80;;;;;;5040964;28;20041;-87
2022/01/12 04:33:48;;;;;;;10.00;7.18;;;6.50;78.80;;;;;;5037051;28;20674;-87
2022/01/12 04:36:15;;;;;;;10.18;7.70;;;6.50;78.80;;;;;;5045239;28;20032;-88
2022/01/12 04:38:43;;;;;;;10.60;7.50;;;6.50;78.80;;;;;;5044956;28;20040;-87
2022/01/12 04:41:10;;;;;;;9.25;6.68;;;6.50;78.80;;;;;;5012944;28;20032;-87
2022/01/12 04:43:40;;;;;;;10.07;7.15;;;6.50;78.80;;;;;;5049776;28;20049;-87
2022/01/12 04:48:48;;;;;;;9.18;6.45;;;6.50;78.80;;;;;;5027377;28;20125;-87
2022/01/12 04:51:14;;;;;;;8.65;6.93;;;6.50;78.80;;;;;;5032533;28;20036;-87
2022/01/12 04:53:39;;;;;;;10.18;7.28;;;6.50;78.70;;;;;;5020735;28;20025;-86
2022/01/12 04:56:05;;;;;;;9.82;7.68;;;6.50;78.70;;;;;;5029350;28;20093;-87
2022/01/12 04:58:32;;;;;;;10.32;7.40;;;6.50;78.70;;;;;;5049975;28;20049;-88
2022/01/12 05:01:05;;;;;;;9.98;7.47;;;6.50;78.70;;;;;;5032980;28;20026;-87
2022/01/12 05:09:13;;;;;;;10.90;7.70;;;6.50;78.80;;;;;;5041787;28;20441;-86
2022/01/12 05:14:25;;;;;;;9.90;7.43;;;6.50;78.70;;;;;;5022373;28;20026;-85
2022/01/12 05:16:53;;;;;;;11.10;7.50;;;6.50;78.70;;;;;;4995612;28;20038;-87
2022/01/12 05:19:19;;;;;;;9.65;7.20;;;6.50;78.80;;;;;;5036153;28;20033;-87
2022/01/12 05:21:45;;;;;;;9.93;7.28;;;6.50;78.80;;;;;;5028805;28;20029;-87
2022/01/12 05:24:11;;;;;;;12.07;7.95;;;6.50;78.80;;;;;;4993492;28;20033;-88
2022/01/12 05:26:39;;;;;;;8.65;6.57;;;6.50;78.80;;;;;;5039685;28;20225;-88
2022/01/12 05:29:06;;;;;;;10.10;7.38;;;6.50;78.80;;;;;;5001753;28;20033;-90
2022/01/12 05:31:33;;;;;;;9.80;7.22;;;6.50;78.80;;;;;;5033207;28;20036;-84
2022/01/12 05:34:01;;;;;;;9.68;7.38;;;6.50;78.80;;;;;;4996875;28;20033;-86
2022/01/12 05:36:31;;;;;;;10.32;7.22;;;6.50;78.80;;;;;;5029718;28;20028;-85
2022/01/12 05:38:59;;;;;;;9.20;6.93;;;6.50;78.80;;;;;;5036249;28;20101;-86
2022/01/12 05:41:25;;;;;;;10.25;7.18;;;6.50;78.80;;;;;;4998169;28;20018;-85
2022/01/12 05:43:51;;;;;;;11.25;7.38;;;6.50;78.80;;;;;;5010385;28;20889;-86
2022/01/12 05:46:22;;;;;;;10.05;7.32;;;6.50;78.80;;;;;;5029618;28;20088;-85
2022/01/12 05:51:38;;;;;;;9.48;7.18;;;6.50;78.80;;;;;;5041047;28;20037;-84
2022/01/12 05:54:04;;;;;;;10.70;7.70;;;6.50;78.70;;;;;;5038663;28;20057;-84
2022/01/12 05:56:30;;;;;;;10.25;7.72;;;6.50;78.80;;;;;;5051596;28;20029;-86
2022/01/12 05:58:56;;;;;;;10.68;7.43;;;6.50;79.40;;;;;;5025870;28;20400;-88
2022/01/12 06:01:22;;;;;;;10.60;7.45;;;6.50;78.80;;;;;;5020881;28;20095;-84
2022/01/12 06:03:50;;;;;;;10.10;7.47;;;6.50;78.80;;;;;;5042927;28;20463;-85
2022/01/12 06:06:16;;;;;;;10.70;7.90;;;6.50;78.80;;;;;;5018809;28;20140;-85
2022/01/12 06:08:44;;;;;;;10.65;7.93;;;6.50;78.80;;;;;;5059509;28;20772;-85
2022/01/12 06:11:10;;;;;;;9.95;7.30;;;6.50;78.80;;;;;;5006957;28;20021;-82
2022/01/12 06:13:37;;;;;;;9.55;7.38;;;6.60;78.80;;;;;;5035067;28;20465;-85
2022/01/12 06:16:03;;;;;;;11.57;8.77;;;6.60;78.80;;;;;;5044683;28;20103;-86
2022/01/12 06:18:32;;;;;;;11.05;7.38;;;6.60;78.90;;;;;;5045131;28;20037;-84
2022/01/12 06:20:58;;;;;;;10.57;8.02;;;6.60;78.80;;;;;;5053776;28;20124;-84
2022/01/12 06:23:47;;;;;;;10.63;7.68;;;6.60;78.80;;;;;;5029442;28;20805;-83
2022/01/12 06:26:13;;;;;;;10.55;7.70;;;6.60;78.80;;;;;;5024317;28;20036;-84
2022/01/12 06:28:42;;;;;;;11.35;8.48;;;6.50;78.80;;;;;;5032152;28;20140;-85
2022/01/12 06:31:10;;;;;;;12.10;8.13;;;6.60;78.80;;;;;;5023769;28;20024;-84
2022/01/12 06:33:46;;;;;;;10.45;7.72;;;6.60;78.80;;;;;;5062906;28;20111;-84
2022/01/12 06:36:15;;;;;;;12.13;7.88;;;6.50;78.80;;;;;;5036084;28;20040;-85
2022/01/12 06:38:42;;;;;;;11.15;8.27;;;6.60;78.80;;;;;;5050990;28;20029;-85
2022/01/12 06:41:09;;;;;;;10.77;8.23;;;6.60;78.80;;;;;;5031151;28;20078;-83
2022/01/12 06:43:35;;;;;;;10.90;8.20;;;6.60;78.90;;;;;;5059395;28;20049;-84
2022/01/12 06:46:05;;;;;;;11.63;8.43;;;6.60;78.90;;;;;;5016563;28;20124;-84
2022/01/12 06:48:32;;;;;;;10.98;7.82;;;6.60;78.90;;;;;;5047162;28;20186;-84
2022/01/12 06:50:58;;;;;;;11.70;7.75;;;6.60;78.80;;;;;;5043326;28;20017;-83
2022/01/12 06:53:25;;;;;;;11.10;7.88;;;6.60;78.90;;;;;;5043192;28;20033;-84
2022/01/12 06:55:50;;;;;;;11.50;8.35;;;6.60;78.80;;;;;;5039488;28;20025;-84
2022/01/12 06:58:17;;;;;;;12.05;8.57;;;6.60;78.80;;;;;;5055324;28;20036;-84
2022/01/12 07:00:43;;;;;;;11.25;8.07;;;6.60;78.80;;;;;;5047330;28;20031;-83
2022/01/12 07:03:10;;;;;;;10.50;8.02;;;6.60;78.80;;;;;;5063525;28;20487;-83
2022/01/12 07:05:43;;;;;;;13.88;9.15;;;6.60;78.80;;;;;;5051309;28;20021;-85
2022/01/12 07:08:09;;;;;;;10.98;7.93;;;6.60;78.80;;;;;;5062041;28;20564;-84
2022/01/12 07:10:39;;;;;;;12.80;8.88;;;6.60;78.80;;;;;;5046000;28;20058;-84
2022/01/12 07:13:13;;;;;;;10.50;7.45;;;6.60;78.80;;;;;;5035285;28;20132;-85
2022/01/12 07:15:44;;;;;;;10.40;7.60;;;6.60;78.80;;;;;;5038875;28;20242;-85
2022/01/12 07:18:11;;;;;;;11.93;8.77;;;6.60;78.80;;;;;;5028650;28;20021;-84
2022/01/12 07:20:37;;;;;;;12.20;7.93;;;6.60;78.80;;;;;;5048083;28;20017;-84
2022/01/12 07:23:03;;;;;;;11.60;8.32;;;6.60;78.80;;;;;;5031337;28;20029;-85
2022/01/12 07:25:29;;;;;;;10.65;7.78;;;6.60;78.80;;;;;;5052027;28;20397;-84
2022/01/12 07:27:55;;;;;;;13.13;8.38;;;6.60;78.90;;;;;;5023261;28;20033;-84
2022/01/12 07:30:22;;;;;;;12.18;8.45;;;6.60;78.90;;;;;;5065343;28;20021;-84
2022/01/12 07:32:48;;;;;;;11.63;7.85;;;6.60;78.90;;;;;;5051101;28;20033;-83
2022/01/12 07:35:14;;;;;;;12.20;8.55;;;6.60;78.90;;;;;;5056483;28;20368;-84
2022/01/12 07:37:40;;;;;;;11.73;8.40;;;6.60;78.80;;;;;;5030647;28;20482;-85
2022/01/12 07:40:07;;;;;;;12.30;8.20;;;6.60;78.90;;;;;;5068965;28;20385;-83
2022/01/12 07:42:34;;;;;;;12.25;8.05;;;6.60;78.80;;;;;;5029152;28;20104;-83
2022/01/12 07:45:08;;;;;;;;;;;6.70;78.90;;;;;;5016243;28;20049;-83
2022/01/12 07:47:34;;;;;;;10.75;7.15;;;6.60;78.80;;;;;;5033241;28;19959;-84
2022/01/12 07:50:02;;;;;;;11.15;7.75;;;6.60;78.70;;;;;;5056748;28;20553;-83
2022/01/12 07:52:30;;;;;;;11.88;8.45;;;6.60;78.80;;;;;;5055998;28;20055;-84
2022/01/12 07:54:56;;;;;;;11.90;7.57;;;6.60;78.90;;;;;;5048453;28;20469;-83
2022/01/12 07:57:22;;;;;;;11.00;7.47;;;6.60;78.90;;;;;;5055750;28;20061;-84
2022/01/12 07:59:48;;;;;;;10.82;7.70;;;6.60;78.90;;;;;;5050373;28;20458;-84
2022/01/12 08:02:14;;;;;;;11.52;8.02;;;6.60;78.90;;;;;;5043460;28;20392;-85
2022/01/12 08:04:40;;;;;;;11.18;7.35;;;6.70;78.90;;;;;;5039995;28;20020;-84
2022/01/12 08:07:07;;;;;;;11.80;8.05;;;6.60;78.90;;;;;;5055946;28;20028;-84
2022/01/12 08:09:34;;;;;;;11.35;7.85;;;6.70;78.90;;;;;;5047507;28;20103;-84
2022/01/12 08:12:00;;;;;;;12.00;7.45;;;6.70;79.50;;;;;;5048309;28;20530;-83
2022/01/12 08:14:26;;;;;;;13.75;8.23;;;6.70;78.90;;;;;;5029581;28;20025;-84
2022/01/12 08:16:51;;;;;;;13.75;7.85;;;6.70;78.90;;;;;;5032106;28;20101;-84
2022/01/12 08:19:19;;;;;;;9.95;7.03;;;6.70;78.90;;;;;;5008654;28;20029;-84
2022/01/12 08:21:45;;;;;;;11.73;8.32;;;6.70;78.90;;;;;;5023292;28;20124;-86
2022/01/12 08:24:12;;;;;;;10.65;7.10;;;6.70;78.90;;;;;;5039709;28;20067;-85
2022/01/12 08:26:39;;;;;;;12.20;7.95;;;6.70;78.90;;;;;;5057744;28;20538;-85
2022/01/12 08:29:05;;;;;;;12.20;7.65;;;6.70;78.90;;;;;;5035107;28;20036;-82
2022/01/12 08:31:31;;;;;;;11.77;8.10;;;6.70;78.90;;;;;;5064878;28;20024;-86
2022/01/12 08:33:57;;;;;;;13.05;8.45;;;6.70;78.90;;;;;;5028167;28;20044;-86
2022/01/12 08:36:23;;;;;;;12.18;7.72;;;6.70;78.90;;;;;;5039193;28;20484;-86
2022/01/12 08:38:50;;;;;;;11.35;7.80;;;6.70;78.90;;;;;;5034538;28;20117;-86
2022/01/12 08:41:16;;;;;;;12.90;8.13;;;6.70;78.90;;;;;;5044590;28;20497;-82
2022/01/12 08:43:41;;;;;;;11.88;7.20;;;6.80;79.00;;;;;;5010766;28;20331;-83
2022/01/12 08:46:09;;;;;;;11.88;7.68;;;6.70;78.90;;;;;;5033021;28;20033;-85
2022/01/12 08:48:35;;;;;;;10.65;7.22;;;6.80;79.00;;;;;;5024401;28;20045;-84
2022/01/12 08:51:02;;;;;;;12.00;7.50;;;6.80;79.00;;;;;;5032877;28;20036;-84
2022/01/12 08:53:28;;;;;;;11.27;7.40;;;6.80;79.00;;;;;;4997450;28;20030;-84
2022/01/12 08:55:54;;;;;;;12.20;7.47;;;6.80;79.00;;;;;;5035512;28;20029;-85
2022/01/12 08:58:20;;;;;;;12.20;7.32;;;6.80;79.00;;;;;;5012390;28;20025;-84
2022/01/12 09:00:46;;;;;;;11.02;7.38;;;6.80;79.00;;;;;;5008247;28;20083;-85
2022/01/12 09:03:12;;;;;;;12.65;7.93;;;6.80;79.00;;;;;;5032746;28;20048;-86
2022/01/12 09:05:38;;;;;;;11.38;7.22;;;6.70;78.90;;;;;;5032761;28;20117;-85
2022/01/12 09:08:05;;;;;;;11.85;7.93;;;6.80;79.00;;;;;;5006811;28;20477;-84
2022/01/12 09:10:31;;;;;;;11.63;7.63;;;6.80;79.00;;;;;;5044124;28;20017;-85
2022/01/12 09:12:57;;;;;;;12.90;8.18;;;6.80;79.00;;;;;;5023017;28;20028;-84
2022/01/12 09:15:25;;;;;;;11.00;6.95;;;6.80;79.00;;;;;;5026851;28;20036;-84
2022/01/12 09:17:56;;;;;;;10.90;7.68;;;6.80;79.00;;;;;;5024105;28;20355;-84
2022/01/12 09:20:23;;;;;;;12.50;8.18;;;6.80;79.60;;;;;;5010444;28;20490;-84
2022/01/12 09:22:49;;;;;;;12.32;7.85;;;6.80;79.00;;;;;;5006760;28;20072;-85
2022/01/12 09:25:15;;;;;;;12.48;7.93;;;6.80;79.00;;;;;;5035809;28;20057;-85
2022/01/12 09:27:42;;;;;;;10.75;7.10;;;6.90;79.00;;;;;;5022459;28;20061;-85
2022/01/12 09:30:10;;;;;;;10.70;7.05;;;6.80;79.00;;;;;;5044355;28;20103;-85
2022/01/12 09:32:36;;;;;;;12.95;8.00;;;6.80;79.00;;;;;;5035821;28;20032;-85
2022/01/12 09:35:04;;;;;;;12.70;8.23;;;6.80;79.60;;;;;;5038944;28;20057;-85
2022/01/12 09:37:30;;;;;;;11.43;7.50;;;6.80;79.00;;;;;;5038404;28;20040;-85
2022/01/12 09:39:56;;;;;;;11.45;7.30;;;6.90;79.00;;;;;;4996201;28;20120;-85
2022/01/12 09:42:22;;;;;;;12.80;7.40;;;6.80;79.00;;;;;;5029600;28;20026;-83
2022/01/12 09:44:48;;;;;;;10.57;7.00;;;6.90;79.00;;;;;;5035250;28;20060;-85
2022/01/12 09:47:16;;;;;;;11.75;7.47;;;6.90;79.00;;;;;;5054456;28;20021;-88
2022/01/12 09:49:44;;;;;;;13.07;7.78;;;6.90;79.00;;;;;;5015873;28;20493;-90
2022/01/12 09:52:10;;;;;;;12.55;7.60;;;6.90;79.00;;;;;;5024512;28;20036;-86
2022/01/12 09:54:36;;;;;;;14.02;7.80;;;6.90;79.00;;;;;;5022622;28;20034;-88
2022/01/12 09:57:04;;;;;;;11.57;7.20;;;6.90;79.00;;;;;;5050082;28;20024;-88
2022/01/12 09:59:30;;;;;;;12.60;7.70;;;6.90;79.00;;;;;;5040178;28;20470;-87
2022/01/12 10:01:59;;;;;;;11.85;7.72;;;6.90;79.00;;;;;;5023730;28;20021;-90
2022/01/12 10:04:30;;;;;;;12.35;8.02;;;6.90;79.00;;;;;;5040242;28;20018;-88
2022/01/12 10:07:04;;;;;;;12.25;7.55;;;6.90;79.00;;;;;;5007217;28;20577;-87
2022/01/12 10:09:40;;;;;;;11.55;7.40;;;6.90;79.00;;;;;;5042061;28;20076;-87
2022/01/12 10:12:27;;;;;;;14.43;7.80;;;7.00;79.00;;;;;;5010054;28;20063;-89
2022/01/12 10:15:00;;;;;;;12.13;7.47;;;6.90;79.00;;;;;;5049924;28;20021;-87
2022/01/12 10:17:37;;;;;;;12.43;7.47;;;7.00;79.00;;;;;;5056841;28;20103;-88
2022/01/12 10:20:18;;;;;;;14.45;7.93;;;7.00;79.70;;;;;;5046871;28;20033;-87
2022/01/12 10:23:06;;;;;;;12.75;8.00;;;7.00;79.00;;;;;;5042088;28;20056;-90
2022/01/12 10:25:33;;;;;;;11.10;6.85;;;7.00;79.10;;;;;;5059922;28;20128;-88
2022/01/12 10:28:18;;;;;;;11.95;6.93;;;7.00;79.00;;;;;;5037226;28;20021;-90
2022/01/12 10:30:56;;;;;;;12.73;7.85;;;7.00;79.10;;;;;;5032111;28;20096;-87
2022/01/12 10:33:27;;;;;;;13.07;8.00;;;7.00;79.10;;;;;;5059721;28;20518;-88
2022/01/12 10:36:13;;;;;;;12.07;8.40;;;7.00;79.00;;;;;;5027119;28;20560;-89
2022/01/12 10:42:12;;;;;;;12.07;7.50;;;7.00;79.10;;;;;;5045355;28;20048;-86
2022/01/12 10:45:05;;;;;;;11.07;6.70;;;7.00;79.00;;;;;;5014765;28;20644;-88
2022/01/12 10:47:34;;;;;;;11.38;6.90;;;7.00;78.90;;;;;;5051926;28;20029;-88
2022/01/12 10:50:10;;;;;;;9.75;6.57;;;7.00;79.00;;;;;;5054436;28;20035;-90
2022/01/12 10:52:48;;;;;;;11.95;6.85;;;7.00;79.10;;;;;;5064222;28;20033;-89
2022/01/12 10:55:15;;;;;;;12.65;7.47;;;7.10;79.70;;;;;;5045135;28;20516;-88
2022/01/12 10:57:44;;;;;;;11.73;6.97;;;7.10;79.00;;;;;;5025634;28;20021;-85
2022/01/12 11:00:18;;;;;;;12.15;7.82;;;7.10;79.10;;;;;;5061743;28;20036;-86
2022/01/12 11:02:50;;;;;;;12.38;7.40;;;7.10;79.10;;;;;;5032637;28;20033;-87
2022/01/12 11:05:29;;;;;;;10.55;6.78;;;7.10;79.00;;;;;;5050236;28;20059;-91
2022/01/12 11:07:56;;;;;;;10.48;6.95;;;7.20;79.10;;;;;;5035925;28;20120;-90
2022/01/12 11:10:33;;;;;;;10.50;6.93;;;7.20;79.00;;;;;;5028632;28;20028;-93
2022/01/12 11:12:59;;;;;;;11.75;7.10;;;7.20;79.00;;;;;;5052009;28;20059;-92
2022/01/12 11:15:25;;;;;;;12.18;7.00;;;7.20;79.00;;;;;;5035697;28;20025;-91
2022/01/12 11:17:52;;;;;;;10.93;7.00;;;7.20;79.00;;;;;;5046885;28;20025;-92
2022/01/12 11:20:26;;;;;;;12.05;7.53;;;7.20;79.00;;;;;;5021823;28;20018;-92
2022/01/12 11:23:14;;;;;;;12.88;7.13;;;7.20;79.00;;;;;;5029934;28;20032;-92
2022/01/12 11:25:47;;;;;;;11.60;6.93;;;7.30;79.10;;;;;;5052514;28;20076;-90
2022/01/12 11:28:13;;;;;;;11.75;7.15;;;7.30;78.90;;;;;;5028383;28;20040;-89
2022/01/12 11:30:56;;;;;;;12.50;7.15;;;7.30;78.90;;;;;;5056056;28;20021;-92
2022/01/12 11:33:44;;;;;;;10.18;7.13;;;7.30;79.00;;;;;;5046732;28;20032;-92
2022/01/12 11:36:17;;;;;;;11.55;6.78;;;7.30;78.90;;;;;;5026204;28;20449;-92
2022/01/12 11:38:50;;;;;;;10.63;6.40;;;7.30;78.90;;;;;;5065220;28;20033;-91
2022/01/12 11:41:24;;;;;;;10.90;6.65;;;7.30;78.90;;;;;;5060208;28;20030;-91
2022/01/12 11:44:02;;;;;;;11.77;7.65;;;7.30;78.90;;;;;;5075870;28;20158;-90
2022/01/12 11:46:42;;;;;;;11.23;7.40;;;7.40;78.90;;;;;;5065366;28;20711;-91
2022/01/12 11:49:09;;;;;;;10.35;6.70;;;7.40;78.90;;;;;;5034883;28;20043;-91
2022/01/12 11:51:42;;;;;;;10.65;6.68;;;7.40;78.80;;;;;;5046747;28;20062;-91
2022/01/12 11:54:13;;;;;;;13.73;7.45;;;7.40;78.90;;;;;;5054043;28;20437;-89
2022/01/12 11:56:58;;;;;;;11.48;6.82;;;7.40;78.80;;;;;;5051775;28;20021;-87
2022/01/12 11:59:28;;;;;;;10.48;6.63;;;7.40;78.90;;;;;;5064465;28;20040;-89
2022/01/12 12:02:09;;;;;;;10.27;7.10;;;7.50;78.80;;;;;;5067922;28;20029;-83
2022/01/12 12:04:35;;;;;;;10.70;6.53;;;7.50;78.90;;;;;;5046723;28;20021;-84
2022/01/12 12:07:07;;;;;;;10.82;6.60;;;7.50;78.80;;;;;;5051650;28;20063;-88
2022/01/12 12:09:45;;;;;;;12.63;7.05;;;7.50;78.80;;;;;;5065736;28;20099;-86
2022/01/12 12:12:23;;;;;;;10.20;6.40;;;7.50;78.80;;;;;;5050708;28;20380;-84
2022/01/12 12:14:53;;;;;;;11.32;6.30;;;7.60;78.80;;;;;;5043882;28;20025;-88
2022/01/12 12:17:21;;;;;;;9.90;6.60;;;7.60;78.80;;;;;;5036760;28;20452;-82
2022/01/12 12:19:48;;;;;;;10.88;6.55;;;7.60;78.70;;;;;;5063094;28;20503;-84
2022/01/12 12:22:20;;;;;;;11.32;6.95;;;7.60;78.70;;;;;;5036978;28;20461;-85
2022/01/12 12:24:53;;;;;;;11.25;6.47;;;7.60;78.70;;;;;;5049843;28;20132;-84
2022/01/12 12:27:21;;;;;;;11.45;7.05;;;7.60;78.70;;;;;;5065058;28;20473;-86
2022/01/12 12:29:48;;;;;;;11.40;7.20;;;7.60;78.70;;;;;;5056090;28;20049;-85
2022/01/12 12:32:15;;;;;;;12.52;7.20;;;7.60;78.70;;;;;;5036441;28;20028;-83
2022/01/12 12:34:43;;;;;;;10.60;6.10;;;7.60;78.60;;;;;;5040667;28;20078;-86
2022/01/12 12:37:15;;;;;;;12.27;7.20;;;7.70;78.70;;;;;;5036539;28;20040;-85
2022/01/12 12:39:44;;;;;;;13.10;7.22;;;7.70;78.70;;;;;;5028507;28;20080;-85
2022/01/12 12:42:18;;;;;;;10.82;7.25;;;7.70;78.60;;;;;;5041488;28;20036;-85
2022/01/12 12:44:45;;;;;;;10.80;6.60;;;7.70;78.60;;;;;;5043326;28;20076;-84
2022/01/12 12:47:13;;;;;;;12.10;7.03;;;7.70;78.60;;;;;;5037292;28;20119;-90
2022/01/12 12:50:00;;;;;;;10.65;6.80;;;7.80;78.60;;;;;;5061744;28;20048;-86
2022/01/12 12:52:35;;;;;;;10.57;6.72;;;7.80;78.70;;;;;;5035444;28;20039;-88
2022/01/12 12:55:04;;;;;;;11.50;6.35;;;7.80;78.60;;;;;;5023845;28;20028;-87
2022/01/12 12:57:30;;;;;;;10.35;6.45;;;7.80;78.60;;;;;;5044862;28;20017;-86
2022/01/12 13:00:16;;;;;;;10.75;6.50;;;7.80;78.60;;;;;;5047953;28;20505;-87
2022/01/12 13:02:48;;;;;;;10.68;6.70;;;7.80;78.70;;;;;;5040916;28;20035;-88
2022/01/12 13:05:18;;;;;;;11.52;6.60;;;7.80;78.60;;;;;;5047496;28;20025;-86
2022/01/12 13:07:45;;;;;;;9.60;6.20;;;7.80;78.60;;;;;;5027840;28;20051;-89
2022/01/12 13:10:16;;;;;;;10.90;6.15;;;7.80;78.60;;;;;;5011120;28;20041;-86
2022/01/12 13:12:45;;;;;;;9.90;6.68;;;7.80;78.60;;;;;;5000324;28;20037;-89
2022/01/12 13:15:37;;;;;;;12.70;7.00;;;7.80;78.50;;;;;;5039821;28;20013;-91
2022/01/12 13:18:06;;;;;;;9.10;5.88;;;7.90;78.60;;;;;;5027576;28;20037;-89
2022/01/12 13:23:26;;;;;;;10.93;6.65;;;7.90;78.50;;;;;;5066026;28;20128;-94
2022/01/12 13:25:55;;;;;;;11.82;6.40;;;7.90;78.50;;;;;;5062722;28;20029;-93
2022/01/12 13:28:21;;;;;;;10.32;6.20;;;8.00;78.60;;;;;;5044436;28;20043;-84
2022/01/12 13:30:53;;;;;;;9.00;6.38;;;7.90;78.50;;;;;;5059619;28;20026;-89
2022/01/12 13:33:29;;;;;;;9.77;6.43;;;8.00;78.60;;;;;;5068618;28;20582;-90
2022/01/12 13:35:55;;;;;;;10.30;6.57;;;8.00;78.60;;;;;;5029276;28;20108;-89
2022/01/12 13:38:27;;;;;;;10.18;6.43;;;8.00;78.50;;;;;;5002781;28;20025;-88
2022/01/12 13:40:55;;;;;;;10.45;6.55;;;8.00;78.50;;;;;;5049969;28;20412;-87
2022/01/12 13:43:23;;;;;;;9.13;5.60;;;8.00;78.50;;;;;;5060864;28;20028;-90
2022/01/12 13:46:01;;;;;;;10.45;6.55;;;8.00;78.40;;;;;;5047899;28;20049;-85
2022/01/12 13:48:32;;;;;;;9.77;6.05;;;8.10;78.50;;;;;;5044402;28;20037;-85
2022/01/12 13:50:59;;;;;;;9.77;6.00;;;8.10;78.40;;;;;;5048737;28;20033;-90
2022/01/12 13:53:36;;;;;;;11.15;6.18;;;8.10;78.40;;;;;;5046616;28;20567;-89
2022/01/12 13:56:04;;;;;;;11.32;6.82;;;8.10;78.50;;;;;;5064979;28;20028;-89
2022/01/12 13:58:32;;;;;;;8.88;6.00;;;8.10;78.40;;;;;;5010975;28;20029;-89
2022/01/12 14:01:05;;;;;;;11.30;6.80;;;8.10;78.40;;;;;;5040831;28;20021;-92
2022/01/12 14:03:38;;;;;;;11.30;7.05;;;8.10;78.40;;;;;;5022248;28;20021;-91
2022/01/12 14:06:13;;;;;;;11.88;7.00;;;8.10;78.40;;;;;;5028689;28;20523;-90
2022/01/12 14:08:51;;;;;;;11.75;7.05;;;8.10;78.50;;;;;;5027527;28;20112;-93
2022/01/12 14:11:17;;;;;;;9.85;6.25;;;8.20;78.50;;;;;;5037261;28;20499;-88
2022/01/12 14:13:43;;;;;;;11.00;6.38;;;8.10;78.40;;;;;;5054000;28;20021;-90
2022/01/12 14:16:14;;;;;;;11.38;7.32;;;8.10;78.40;;;;;;5073602;28;20048;-91
2022/01/12 14:18:41;;;;;;;9.98;6.65;;;8.20;78.40;;;;;;5029917;28;20090;-91
2022/01/12 14:21:19;;;;;;;10.80;7.00;;;8.10;78.40;;;;;;5058170;28;20013;-90